createdAt,value
2022-12-24T00:02:17.629Z,101206.59
2022-12-24T00:04:46.564Z,101209.56
2022-12-24T00:07:15.583Z,101199.13
2022-12-24T00:09:45.473Z,101201.94
2022-12-24T00:12:14.795Z,101206.81
2022-12-24T00:14:43.421Z,101200.53
2022-12-24T00:17:12.184Z,101188.03
2022-12-24T00:19:40.847Z,101190.00
2022-12-24T00:22:14.297Z,101193.81
2022-12-24T00:24:47.181Z,101199.78
2022-12-24T00:27:23.725Z,101193.19
2022-12-24T00:29:52.424Z,101188.78
2022-12-24T00:32:23.168Z,101198.78
2022-12-24T00:34:52.065Z,101201.19
2022-12-24T00:37:21.729Z,101209.13
2022-12-24T00:39:50.352Z,101208.50
2022-12-24T00:42:19.095Z,101196.44
2022-12-24T00:45:06.499Z,101201.78
2022-12-24T00:47:40.693Z,101206.75
2022-12-24T00:50:10.238Z,101200.66
2022-12-24T00:52:40.511Z,101205.03
2022-12-24T00:55:12.829Z,101203.56
2022-12-24T00:57:43.606Z,101199.22
2022-12-24T01:00:18.219Z,101204.84
2022-12-24T01:02:49.774Z,101200.66
2022-12-24T01:05:21.487Z,101202.41
2022-12-24T01:07:50.457Z,101211.25
2022-12-24T01:10:23.205Z,101223.00
2022-12-24T01:12:55.271Z,101215.66
2022-12-24T01:15:24.231Z,101217.44
2022-12-24T01:17:52.950Z,101209.06
2022-12-24T01:20:23.898Z,101203.50
2022-12-24T01:22:52.663Z,101195.53
2022-12-24T01:25:21.308Z,101190.56
2022-12-24T01:27:53.735Z,101196.59
2022-12-24T01:30:24.978Z,101191.69
2022-12-24T01:32:53.755Z,101203.41
2022-12-24T01:35:25.069Z,101192.56
2022-12-24T01:37:53.869Z,101180.72
2022-12-24T01:40:40.995Z,101200.47
2022-12-24T01:43:24.514Z,101200.28
2022-12-24T01:46:27.706Z,101192.34
2022-12-24T01:49:05.542Z,101204.19
2022-12-24T01:51:38.532Z,101189.06
2022-12-24T01:54:24.199Z,101203.13
2022-12-24T01:57:03.659Z,101196.75
2022-12-24T01:59:37.396Z,101201.88
2022-12-24T02:02:12.444Z,101206.63
2022-12-24T02:04:52.819Z,101202.03
2022-12-24T02:07:21.868Z,101195.50
2022-12-24T02:10:03.604Z,101189.13
2022-12-24T02:12:38.476Z,101195.19
2022-12-24T02:15:10.744Z,101204.28
2022-12-24T02:17:51.362Z,101207.16
2022-12-24T02:20:31.268Z,101220.16
2022-12-24T02:23:21.347Z,101216.16
2022-12-24T02:25:57.597Z,101227.94
2022-12-24T02:29:05.610Z,101232.66
2022-12-24T02:31:51.591Z,101239.34
2022-12-24T02:34:32.024Z,101234.75
2022-12-24T02:37:13.354Z,101232.72
2022-12-24T02:39:54.784Z,101246.31
2022-12-24T02:42:28.600Z,101254.75
2022-12-24T02:45:05.092Z,101257.44
2022-12-24T02:47:34.611Z,101247.16
2022-12-24T02:50:09.724Z,101258.13
2022-12-24T02:52:41.556Z,101259.16
2022-12-24T02:55:22.429Z,101260.00
2022-12-24T02:58:29.879Z,101263.88
2022-12-24T03:01:22.383Z,101258.53
2022-12-24T03:04:04.967Z,101259.72
2022-12-24T03:06:49.794Z,101250.84
2022-12-24T03:09:44.476Z,101255.94
2022-12-24T03:12:19.240Z,101248.69
2022-12-24T03:14:52.230Z,101250.78
2022-12-24T03:17:21.586Z,101244.06
2022-12-24T03:19:51.202Z,101245.75
2022-12-24T03:22:23.380Z,101258.69
2022-12-24T03:24:53.675Z,101264.06
2022-12-24T03:27:30.761Z,101260.19
2022-12-24T03:30:02.853Z,101253.63
2022-12-24T03:32:33.582Z,101262.38
2022-12-24T03:35:02.333Z,101257.25
2022-12-24T03:37:30.974Z,101262.88
2022-12-24T03:40:05.896Z,101263.22
2022-12-24T03:42:34.705Z,101263.69
2022-12-24T03:45:03.405Z,101267.22
2022-12-24T03:47:45.018Z,101264.00
2022-12-24T03:50:13.927Z,101259.97
2022-12-24T03:52:44.764Z,101277.84
2022-12-24T03:55:13.473Z,101281.84
2022-12-24T03:57:42.170Z,101292.47
2022-12-24T04:00:14.135Z,101291.03
2022-12-24T04:02:43.161Z,101293.41
2022-12-24T04:05:18.130Z,101288.44
2022-12-24T04:07:47.900Z,101291.03
2022-12-24T04:10:18.082Z,101298.75
2022-12-24T04:12:46.733Z,101285.56
2022-12-24T04:15:18.665Z,101287.66
2022-12-24T04:17:47.946Z,101285.22
2022-12-24T04:20:22.093Z,101282.94
2022-12-24T04:22:54.874Z,101296.00
2022-12-24T04:25:23.652Z,101291.78
2022-12-24T04:27:53.683Z,101297.72
2022-12-24T04:30:22.441Z,101289.53
2022-12-24T04:32:53.983Z,101292.22
2022-12-24T04:35:27.446Z,101293.16
2022-12-24T04:37:56.211Z,101286.25
2022-12-24T04:40:25.819Z,101289.66
2022-12-24T04:42:54.525Z,101289.94
2022-12-24T04:45:23.417Z,101295.59
2022-12-24T04:47:55.037Z,101299.50
2022-12-24T04:50:23.741Z,101295.97
2022-12-24T04:52:55.681Z,101292.56
2022-12-24T04:55:24.489Z,101300.53
2022-12-24T04:57:53.470Z,101300.81
2022-12-24T05:00:22.351Z,101307.19
2022-12-24T05:02:51.176Z,101310.78
2022-12-24T05:05:24.846Z,101308.06
2022-12-24T05:08:05.743Z,101307.25
2022-12-24T05:10:34.646Z,101317.03
2022-12-24T05:13:07.369Z,101305.47
2022-12-24T05:15:36.481Z,101326.78
2022-12-24T05:18:07.980Z,101317.59
2022-12-24T05:20:39.084Z,101324.28
2022-12-24T05:23:25.891Z,101322.84
2022-12-24T05:26:13.164Z,101329.00
2022-12-24T05:28:41.562Z,101333.19
2022-12-24T05:31:10.328Z,101329.56
2022-12-24T05:33:42.313Z,101345.47
2022-12-24T05:36:12.430Z,101340.88
2022-12-24T05:38:41.456Z,101334.59
2022-12-24T05:41:16.277Z,101347.09
2022-12-24T05:43:46.121Z,101359.28
2022-12-24T05:46:18.118Z,101353.19
2022-12-24T05:48:47.468Z,101355.16
2022-12-24T05:51:20.338Z,101358.41
2022-12-24T05:53:51.089Z,101352.31
2022-12-24T05:56:27.260Z,101343.94
2022-12-24T05:58:57.353Z,101345.72
2022-12-24T06:01:26.849Z,101347.97
2022-12-24T06:03:58.347Z,101340.72
2022-12-24T06:06:34.145Z,101354.47
2022-12-24T06:09:15.741Z,101356.88
2022-12-24T06:11:48.998Z,101364.16
2022-12-24T06:14:26.012Z,101364.59
2022-12-24T06:16:55.851Z,101360.38
2022-12-24T06:19:26.664Z,101360.03
2022-12-24T06:21:55.403Z,101349.41
2022-12-24T06:24:24.269Z,101361.75
2022-12-24T06:26:55.904Z,101368.91
2022-12-24T06:29:34.169Z,101368.72
2022-12-24T06:32:04.225Z,101382.16
2022-12-24T06:34:32.918Z,101387.72
2022-12-24T06:37:01.689Z,101397.06
2022-12-24T06:39:33.506Z,101400.06
2022-12-24T06:42:05.236Z,101390.72
2022-12-24T06:44:37.861Z,101389.84
2022-12-24T06:47:12.608Z,101394.97
2022-12-24T06:49:41.285Z,101396.09
2022-12-24T06:52:12.745Z,101397.69
2022-12-24T06:54:41.441Z,101406.22
2022-12-24T06:57:10.094Z,101413.22
2022-12-24T06:59:38.812Z,101409.41
2022-12-24T07:02:07.918Z,101415.09
2022-12-24T07:04:36.773Z,101419.72
2022-12-24T07:07:05.434Z,101411.63
2022-12-24T07:09:36.410Z,101412.88
2022-12-24T07:12:11.341Z,101416.09
2022-12-24T07:14:40.121Z,101425.50
2022-12-24T07:17:09.312Z,101422.56
2022-12-24T07:19:38.227Z,101422.63
2022-12-24T07:22:13.390Z,101424.69
2022-12-24T07:24:44.121Z,101426.94
2022-12-24T07:27:15.050Z,101422.81
2022-12-24T07:29:43.898Z,101408.00
2022-12-24T07:32:15.377Z,101405.72
2022-12-24T07:34:44.150Z,101401.56
2022-12-24T07:37:13.023Z,101404.94
2022-12-24T07:39:41.723Z,101402.44
2022-12-24T07:42:10.369Z,101395.72
2022-12-24T07:44:39.242Z,101394.09
2022-12-24T07:47:07.919Z,101393.84
2022-12-24T07:49:39.942Z,101377.78
2022-12-24T07:52:14.007Z,101364.88
2022-12-24T07:54:43.033Z,101374.13
2022-12-24T07:57:13.745Z,101364.88
2022-12-24T07:59:42.514Z,101366.97
2022-12-24T08:02:18.091Z,101370.88
2022-12-24T08:04:48.436Z,101374.56
2022-12-24T08:07:24.645Z,101360.50
2022-12-24T08:09:56.433Z,101361.63
2022-12-24T08:12:25.334Z,101353.16
2022-12-24T08:14:53.969Z,101353.47
2022-12-24T08:17:27.039Z,101357.13
2022-12-24T08:20:02.091Z,101352.94
2022-12-24T08:22:30.800Z,101350.06
2022-12-24T08:25:02.926Z,101358.84
2022-12-24T08:27:31.641Z,101348.91
2022-12-24T08:30:03.273Z,101333.25
2022-12-24T08:32:32.748Z,101340.19
2022-12-24T08:35:01.348Z,101336.31
2022-12-24T08:37:30.130Z,101326.91
2022-12-24T08:40:01.616Z,101328.81
2022-12-24T08:42:31.378Z,101329.19
2022-12-24T08:45:01.396Z,101321.44
2022-12-24T08:47:30.082Z,101334.09
2022-12-24T08:50:01.378Z,101335.84
2022-12-24T08:52:31.569Z,101355.63
2022-12-24T08:55:00.273Z,101348.13
2022-12-24T08:57:36.424Z,101350.72
2022-12-24T09:00:09.467Z,101356.03
2022-12-24T09:02:38.419Z,101352.22
2022-12-24T09:05:07.588Z,101355.72
2022-12-24T09:07:36.224Z,101344.28
2022-12-24T09:10:06.224Z,101342.38
2022-12-24T09:12:34.982Z,101354.31
2022-12-24T09:15:04.667Z,101343.47
2022-12-24T09:17:34.917Z,101332.41
2022-12-24T09:20:07.704Z,101336.31
2022-12-24T09:22:40.687Z,101322.50
2022-12-24T09:25:11.257Z,101326.00
2022-12-24T09:27:40.106Z,101334.38
2022-12-24T09:30:09.786Z,101331.13
2022-12-24T09:32:44.293Z,101338.94
2022-12-24T09:35:14.831Z,101329.59
2022-12-24T09:37:43.590Z,101340.34
2022-12-24T09:40:26.706Z,101324.75
2022-12-24T09:42:55.649Z,101325.38
2022-12-24T09:45:36.011Z,101327.00
2022-12-24T09:48:19.809Z,101328.63
2022-12-24T09:51:18.415Z,101334.97
2022-12-24T09:54:01.737Z,101342.97
2022-12-24T09:56:47.021Z,101358.56
2022-12-24T09:59:25.859Z,101354.28
2022-12-24T10:01:59.245Z,101352.81
2022-12-24T10:04:34.500Z,101356.25
2022-12-24T10:07:24.816Z,101354.16
2022-12-24T10:10:52.968Z,101355.63
2022-12-24T10:13:30.773Z,101352.59
2022-12-24T10:16:15.109Z,101348.72
2022-12-24T10:18:49.101Z,101351.94
2022-12-24T10:21:55.787Z,101365.28
2022-12-24T10:24:35.458Z,101383.50
2022-12-24T10:27:16.754Z,101400.31
2022-12-24T10:30:16.700Z,101391.31
2022-12-24T10:32:49.792Z,101388.69
2022-12-24T10:35:24.825Z,101393.38
2022-12-24T10:37:54.241Z,101399.38
2022-12-24T10:40:32.361Z,101403.88
2022-12-24T10:43:01.441Z,101416.31
2022-12-24T10:45:44.126Z,101393.59
2022-12-24T10:48:23.855Z,101408.19
2022-12-24T10:51:02.331Z,101402.25
2022-12-24T10:53:43.223Z,101402.09
2022-12-24T10:56:14.615Z,101401.63
2022-12-24T10:58:52.036Z,101398.75
2022-12-24T11:01:22.896Z,101403.53
2022-12-24T11:04:04.237Z,101396.59
2022-12-24T11:06:33.106Z,101375.28
2022-12-24T11:09:41.985Z,101366.78
2022-12-24T11:12:23.212Z,101374.81
2022-12-24T11:15:20.222Z,101350.03
2022-12-24T11:18:15.599Z,101346.09
2022-12-24T11:20:51.995Z,101341.59
2022-12-24T11:23:23.884Z,101340.94
2022-12-24T11:25:54.189Z,101361.75
2022-12-24T11:28:33.739Z,101367.34
2022-12-24T11:31:19.343Z,101366.09
2022-12-24T11:33:51.082Z,101363.00
2022-12-24T11:36:24.931Z,101363.22
2022-12-24T11:38:58.655Z,101360.78
2022-12-24T11:41:27.819Z,101354.00
2022-12-24T11:44:05.808Z,101352.81
2022-12-24T11:46:47.061Z,101335.44
2022-12-24T11:49:31.698Z,101327.41
2022-12-24T11:52:12.587Z,101304.19
2022-12-24T11:54:59.971Z,101309.38
2022-12-24T11:58:08.511Z,101294.72
2022-12-24T12:00:36.913Z,101289.72
2022-12-24T12:03:09.458Z,101285.03
2022-12-24T12:05:40.121Z,101280.06
2022-12-24T12:08:30.852Z,101263.66
2022-12-24T12:11:15.679Z,101258.31
2022-12-24T12:13:46.988Z,101238.66
2022-12-24T12:16:21.834Z,101236.09
2022-12-24T12:19:11.430Z,101218.25
2022-12-24T12:21:48.104Z,101209.50
2022-12-24T12:24:48.890Z,101225.16
2022-12-24T12:27:36.128Z,101211.47
2022-12-24T12:30:12.261Z,101210.84
2022-12-24T12:33:02.555Z,101205.50
2022-12-24T12:35:34.979Z,101196.94
2022-12-24T12:38:23.962Z,101210.97
2022-12-24T12:41:23.519Z,101219.53
2022-12-24T12:44:19.895Z,101206.13
2022-12-24T12:47:37.596Z,101200.81
2022-12-24T12:50:21.149Z,101198.84
2022-12-24T12:53:24.927Z,101197.38
2022-12-24T12:56:41.564Z,101176.38
2022-12-24T12:59:40.801Z,101159.75
2022-12-24T13:02:56.991Z,101138.28
2022-12-24T13:05:50.474Z,101144.94
2022-12-24T13:08:37.212Z,101134.56
2022-12-24T13:11:16.489Z,101123.06
2022-12-24T13:13:59.332Z,101112.19
2022-12-24T13:17:05.146Z,101121.94
2022-12-24T13:19:51.501Z,101092.22
2022-12-24T13:22:24.131Z,101096.47
2022-12-24T13:25:04.766Z,101089.38
2022-12-24T13:27:36.689Z,101081.50
2022-12-24T13:30:28.438Z,101088.06
2022-12-24T13:32:59.540Z,101090.81
2022-12-24T13:35:37.139Z,101082.72
2022-12-24T13:38:47.437Z,101089.72
2022-12-24T13:41:39.471Z,101100.56
2022-12-24T13:44:14.211Z,101088.91
2022-12-24T13:47:06.164Z,101073.13
2022-12-24T13:49:46.040Z,101070.19
2022-12-24T13:52:19.468Z,101064.59
2022-12-24T13:55:08.051Z,101056.03
2022-12-24T13:57:42.623Z,101046.72
2022-12-24T14:00:14.143Z,101049.94
2022-12-24T14:03:06.178Z,101035.38
2022-12-24T14:05:40.428Z,101029.13
2022-12-24T14:08:25.745Z,101021.84
2022-12-24T14:11:16.299Z,101020.38
2022-12-24T14:13:47.950Z,101030.25
2022-12-24T14:16:22.805Z,101024.25
2022-12-24T14:19:24.002Z,101026.00
2022-12-24T14:21:53.244Z,101019.56
2022-12-24T14:25:02.760Z,101037.09
2022-12-24T14:27:42.841Z,101025.03
2022-12-24T14:30:19.682Z,101018.38
2022-12-24T14:32:48.968Z,101001.22
2022-12-24T14:35:29.553Z,101001.63
2022-12-24T14:38:08.956Z,101021.03
2022-12-24T14:40:57.500Z,101020.72
2022-12-24T14:43:55.248Z,101002.81
2022-12-24T14:46:24.155Z,101009.66
2022-12-24T14:49:22.755Z,101002.28
2022-12-24T14:52:37.921Z,100983.84
2022-12-24T14:55:35.461Z,100990.25
2022-12-24T14:58:25.214Z,100964.31
2022-12-24T15:00:57.446Z,100968.41
2022-12-24T15:03:31.109Z,100950.91
2022-12-24T15:06:13.268Z,100960.41
2022-12-24T15:08:54.369Z,100946.41
2022-12-24T15:11:26.079Z,100935.66
2022-12-24T15:14:02.354Z,100923.50
2022-12-24T15:16:37.770Z,100907.94
2022-12-24T15:19:44.150Z,100919.19
2022-12-24T15:22:30.769Z,100946.13
2022-12-24T15:25:02.112Z,100935.78
2022-12-24T15:27:39.451Z,100938.19
2022-12-24T15:30:16.803Z,100942.72
2022-12-24T15:32:45.914Z,100941.59
2022-12-24T15:35:52.492Z,100937.09
2022-12-24T15:38:27.881Z,100932.97
2022-12-24T15:40:57.928Z,100944.81
2022-12-24T15:43:28.231Z,100933.91
2022-12-24T15:46:28.893Z,100922.13
2022-12-24T15:49:01.024Z,100929.56
2022-12-24T15:51:40.288Z,100940.25
2022-12-24T15:54:16.487Z,100947.34
2022-12-24T15:56:47.810Z,100953.91
2022-12-24T15:59:38.892Z,100954.66
2022-12-24T16:02:43.400Z,100954.69
2022-12-24T16:05:27.215Z,100971.38
2022-12-24T16:08:17.582Z,100950.19
2022-12-24T16:10:52.335Z,100956.63
2022-12-24T16:13:30.173Z,100970.78
2022-12-24T16:16:05.015Z,100957.31
2022-12-24T16:18:59.030Z,100959.06
2022-12-24T16:21:35.057Z,100938.47
2022-12-24T16:24:08.298Z,100939.44
2022-12-24T16:26:41.000Z,100931.47
2022-12-24T16:29:12.256Z,100938.16
2022-12-24T16:31:52.810Z,100945.47
2022-12-24T16:34:25.266Z,100930.91
2022-12-24T16:36:55.870Z,100925.03
2022-12-24T16:39:29.968Z,100948.66
2022-12-24T16:42:22.417Z,100929.59
2022-12-24T16:44:54.178Z,100944.34
2022-12-24T16:47:35.789Z,100951.13
2022-12-24T16:50:09.124Z,100957.94
2022-12-24T16:52:43.075Z,100949.53
2022-12-24T16:55:17.394Z,100938.56
2022-12-24T16:57:46.454Z,100936.97
2022-12-24T17:00:21.579Z,100955.09
2022-12-24T17:02:56.480Z,100969.84
2022-12-24T17:05:29.138Z,100959.66
2022-12-24T17:08:02.933Z,100965.25
2022-12-24T17:10:36.602Z,100959.56
2022-12-24T17:13:06.055Z,100957.09
2022-12-24T17:15:35.212Z,100938.84
2022-12-24T17:18:09.516Z,100928.59
2022-12-24T17:20:41.130Z,100942.16
2022-12-24T17:23:12.726Z,100939.88
2022-12-24T17:25:44.500Z,100951.50
2022-12-24T17:28:13.550Z,100959.66
2022-12-24T17:30:44.994Z,100971.75
2022-12-24T17:33:16.468Z,100974.56
2022-12-24T17:35:47.014Z,100989.81
2022-12-24T17:38:15.719Z,100985.25
2022-12-24T17:40:44.382Z,100975.44
2022-12-24T17:43:19.976Z,100957.94
2022-12-24T17:45:48.823Z,100958.19
2022-12-24T17:48:20.220Z,100967.41
2022-12-24T17:50:49.163Z,101000.00
2022-12-24T17:53:20.251Z,100997.69
2022-12-24T17:55:49.124Z,100979.31
2022-12-24T17:58:17.784Z,100971.09
2022-12-24T18:00:55.866Z,100988.75
2022-12-24T18:03:27.416Z,101001.31
2022-12-24T18:05:56.478Z,100996.38
2022-12-24T18:08:25.119Z,101005.88
2022-12-24T18:10:56.392Z,101008.16
2022-12-24T18:13:25.118Z,101007.16
2022-12-24T18:15:53.871Z,100999.44
2022-12-24T18:18:34.034Z,100998.78
2022-12-24T18:21:05.858Z,101006.63
2022-12-24T18:23:34.789Z,101004.19
2022-12-24T18:26:09.448Z,100995.88
2022-12-24T18:28:41.023Z,101003.88
2022-12-24T18:31:16.291Z,101008.72
2022-12-24T18:33:51.426Z,101009.84
2022-12-24T18:36:21.441Z,101005.22
2022-12-24T18:38:52.124Z,101042.75
2022-12-24T18:41:31.722Z,101029.97
2022-12-24T18:44:03.518Z,101027.56
2022-12-24T18:46:34.908Z,101054.34
2022-12-24T18:49:09.891Z,101034.44
2022-12-24T18:51:39.404Z,101057.47
2022-12-24T18:54:08.133Z,101057.13
2022-12-24T18:56:37.093Z,101063.09
2022-12-24T18:59:11.073Z,101030.63
2022-12-24T19:01:39.908Z,101029.63
2022-12-24T19:04:08.990Z,101022.66
2022-12-24T19:06:52.701Z,101053.72
2022-12-24T19:09:24.355Z,101039.41
2022-12-24T19:11:54.845Z,101056.94
2022-12-24T19:14:23.594Z,101027.88
2022-12-24T19:16:54.470Z,101051.72
2022-12-24T19:19:24.698Z,101022.66
2022-12-24T19:21:53.515Z,101019.91
2022-12-24T19:24:22.361Z,101043.41
2022-12-24T19:26:58.563Z,101048.78
2022-12-24T19:29:30.300Z,101039.41
2022-12-24T19:31:59.124Z,101059.97
2022-12-24T19:34:30.809Z,101069.50
2022-12-24T19:36:59.591Z,101039.25
2022-12-24T19:39:32.989Z,101024.56
2022-12-24T19:42:02.602Z,101026.16
2022-12-24T19:44:31.228Z,101036.91
2022-12-24T19:47:00.134Z,101013.84
2022-12-24T19:49:43.861Z,100987.44
2022-12-24T19:52:12.582Z,100968.47
2022-12-24T19:54:44.240Z,100966.28
2022-12-24T19:57:15.205Z,100970.53
2022-12-24T19:59:47.018Z,100915.50
2022-12-24T20:02:16.071Z,100869.28
2022-12-24T20:04:45.079Z,100851.72
2022-12-24T20:07:13.965Z,100834.78
2022-12-24T20:09:42.639Z,100791.16
2022-12-24T20:12:14.322Z,100788.50
2022-12-24T20:14:45.280Z,100757.75
2022-12-24T20:17:15.579Z,100737.13
2022-12-24T20:19:44.279Z,100716.31
2022-12-24T20:22:17.590Z,100701.09
2022-12-24T20:24:49.337Z,100700.47
2022-12-24T20:27:19.261Z,100699.28
2022-12-24T20:29:50.585Z,100695.03
2022-12-24T20:32:25.713Z,100690.22
2022-12-24T20:34:54.457Z,100679.19
2022-12-24T20:37:23.109Z,100694.81
2022-12-24T20:39:52.147Z,100688.84
2022-12-24T20:42:20.751Z,100696.09
2022-12-24T20:44:54.950Z,100701.84
2022-12-24T20:47:24.763Z,100707.44
2022-12-24T20:49:53.369Z,100717.06
2022-12-24T20:52:22.183Z,100727.44
2022-12-24T20:54:53.406Z,100744.16
2022-12-24T20:57:27.705Z,100770.41
2022-12-24T21:00:01.979Z,100758.19
2022-12-24T21:02:39.052Z,100827.69
2022-12-24T21:05:08.929Z,100815.78
2022-12-24T21:07:41.282Z,100836.47
2022-12-24T21:10:11.522Z,100846.78
2022-12-24T21:12:49.823Z,100840.81
2022-12-24T21:15:25.222Z,100849.16
2022-12-24T21:17:54.942Z,100861.94
2022-12-24T21:20:31.503Z,100873.84
2022-12-24T21:23:01.657Z,100873.06
2022-12-24T21:25:30.407Z,100900.09
2022-12-24T21:27:59.017Z,100881.81
2022-12-24T21:30:37.459Z,100907.25
2022-12-24T21:33:07.744Z,100879.00
2022-12-24T21:35:36.467Z,100896.91
2022-12-24T21:38:05.435Z,100891.75
2022-12-24T21:40:34.211Z,100904.03
2022-12-24T21:43:02.997Z,100918.38
2022-12-24T21:45:34.975Z,100912.81
2022-12-24T21:48:23.605Z,100955.75
2022-12-24T21:50:58.766Z,100982.00
2022-12-24T21:53:53.560Z,100987.88
2022-12-24T21:56:23.194Z,100978.28
2022-12-24T21:58:55.589Z,100971.50
2022-12-24T22:01:30.066Z,100973.84
2022-12-24T22:04:01.918Z,100978.56
2022-12-24T22:06:49.319Z,100993.63
2022-12-24T22:09:36.281Z,100990.34
2022-12-24T22:12:09.554Z,100994.38
2022-12-24T22:14:41.353Z,101004.81
2022-12-24T22:17:13.047Z,101002.38
2022-12-24T22:19:41.712Z,101005.16
2022-12-24T22:22:10.867Z,101015.75
2022-12-24T22:24:39.725Z,101013.53
2022-12-24T22:27:16.390Z,101011.09
2022-12-24T22:29:44.937Z,101025.25
2022-12-24T22:32:21.428Z,101032.00
2022-12-24T22:34:54.451Z,101026.84
2022-12-24T22:37:24.703Z,101029.31
2022-12-24T22:39:53.401Z,101033.75
2022-12-24T22:42:24.329Z,101023.06
2022-12-24T22:44:55.381Z,101042.84
2022-12-24T22:47:29.488Z,101043.66
2022-12-24T22:49:58.447Z,101057.06
2022-12-24T22:52:38.330Z,101027.09
2022-12-24T22:55:07.380Z,101032.56
2022-12-24T22:57:51.836Z,101033.94
2022-12-24T23:00:42.365Z,101039.19
2022-12-24T23:03:14.590Z,101030.59
2022-12-24T23:05:43.658Z,101017.19
2022-12-24T23:08:16.085Z,101026.34
2022-12-24T23:10:47.020Z,101053.00
2022-12-24T23:13:34.420Z,101031.56
2022-12-24T23:16:07.498Z,101037.59
2022-12-24T23:18:39.287Z,101062.66
2022-12-24T23:21:11.023Z,101061.41
2022-12-24T23:23:39.957Z,101052.34
2022-12-24T23:26:11.781Z,101057.88
2022-12-24T23:28:41.259Z,101076.94
2022-12-24T23:31:10.464Z,101083.69
2022-12-24T23:33:39.788Z,101118.72
2022-12-24T23:36:09.314Z,101116.75
2022-12-24T23:38:41.245Z,101125.44
2022-12-24T23:41:12.289Z,101140.16
2022-12-24T23:43:41.107Z,101156.44
2022-12-24T23:46:19.064Z,101157.22
2022-12-24T23:48:52.126Z,101175.03
2022-12-24T23:51:24.298Z,101174.25
2022-12-24T23:53:57.846Z,101165.88
2022-12-24T23:56:26.812Z,101204.81
2022-12-24T23:58:57.772Z,101215.63
